Time;durP1;ratioP1;P1;durP2;ratioP2;P2;SDS_P1;SDS_P2;PMS_P1;PMS_P2;Temp;Humidity;BMP_temperature;BMP_pressure;BME280_temperature;BME280_humidity;BME280_pressure;Samples;Min_cycle;Max_cycle;Signal;HPM_P1;HPM_P2
2022/02/02 00:04:18;;;;;;;24.70;6.15;;;;;;;-155.54;100.00;57697.75;4955908;28;20111;-61
2022/02/02 00:06:57;;;;;;;30.23;7.88;;;;;;;-155.54;100.00;57697.75;4958051;28;20452;-61
2022/02/02 00:09:22;;;;;;;21.65;5.75;;;;;;;-155.54;100.00;57697.75;4956815;28;20384;-61
2022/02/02 00:12:10;;;;;;;27.77;6.60;;;;;;;-155.54;100.00;57697.75;4951777;28;20573;-61
2022/02/02 00:17:17;;;;;;;24.05;5.78;;;;;;;-155.54;100.00;57697.75;4958624;28;20170;-61
2022/02/02 00:19:57;;;;;;;14.18;4.57;;;;;;;-155.54;100.00;57697.75;4964612;28;20190;-61
2022/02/02 00:22:29;;;;;;;24.50;6.38;;;;;;;-155.54;100.00;57697.75;4963726;28;20146;-61
2022/02/02 00:25:18;;;;;;;24.95;6.60;;;;;;;-155.54;100.00;57697.75;4963500;28;20178;-61
2022/02/02 00:27:47;;;;;;;34.45;7.57;;;;;;;-155.54;100.00;57697.75;4964351;28;20695;-61
2022/02/02 00:30:17;;;;;;;29.08;7.32;;;;;;;-155.54;100.00;57697.75;4962725;28;20107;-61
2022/02/02 00:35:32;;;;;;;35.90;7.07;;;;;;;-155.54;100.00;57697.75;4963364;28;20487;-61
2022/02/02 00:37:58;;;;;;;25.45;5.85;;;;;;;-155.54;100.00;57697.75;4964727;28;20118;-61
2022/02/02 00:40:23;;;;;;;29.30;6.45;;;;;;;-155.54;100.00;57697.75;4963815;28;20572;-61
2022/02/02 00:42:49;;;;;;;30.95;6.85;;;;;;;-155.54;100.00;57697.75;4963974;28;20581;-61
2022/02/02 00:45:15;;;;;;;18.98;5.03;;;;;;;-155.54;100.00;57697.75;4964552;28;20111;-61
2022/02/02 00:47:43;;;;;;;30.48;6.68;;;;;;;-155.54;100.00;57697.75;4963308;28;20205;-61
2022/02/02 00:50:08;;;;;;;34.22;7.90;;;;;;;-155.54;100.00;57697.75;4963378;28;20096;-61
2022/02/02 00:52:34;;;;;;;26.90;6.78;;;;;;;-155.54;100.00;57697.75;4962685;28;20138;-61
2022/02/02 00:54:59;;;;;;;33.67;7.07;;;;;;;-155.54;100.00;57697.75;4963385;28;20119;-61
2022/02/02 00:57:28;;;;;;;38.58;8.30;;;;;;;-155.54;100.00;57697.75;4963459;28;20071;-61
2022/02/02 00:59:54;;;;;;;39.80;6.57;;;;;;;-155.54;100.00;57697.75;4963083;28;20107;-61
2022/02/02 01:02:20;;;;;;;34.58;7.68;;;;;;;-155.54;100.00;57697.75;4963119;28;20750;-61
2022/02/02 01:04:45;;;;;;;45.80;8.43;;;;;;;-155.54;100.00;57697.75;4963268;28;20286;-61
2022/02/02 01:07:19;;;;;;;36.95;7.65;;;;;;;-155.54;100.00;57697.75;4962804;28;20103;-61
2022/02/02 01:12:49;;;;;;;29.25;6.40;;;;;;;-155.54;100.00;57697.75;4962204;28;20107;-61
2022/02/02 01:28:28;;;;;;;31.50;4.63;;;;;;;-155.54;100.00;57697.75;4962744;28;20114;-60
2022/02/02 01:30:54;;;;;;;16.98;4.57;;;;;;;-155.54;100.00;57697.75;4962421;28;20553;-61
2022/02/02 01:33:20;;;;;;;37.47;7.85;;;;;;;-155.54;100.00;57697.75;4967782;28;20086;-60
2022/02/02 01:35:45;;;;;;;40.47;7.70;;;;;;;-155.54;100.00;57697.75;4968599;28;20505;-60
2022/02/02 01:38:11;;;;;;;37.53;7.95;;;;;;;-155.54;100.00;57697.75;4962585;28;20094;-60
2022/02/02 01:40:42;;;;;;;22.25;5.95;;;;;;;-155.54;100.00;57697.75;4961017;28;20153;-60
2022/02/02 01:43:31;;;;;;;25.55;5.43;;;;;;;-155.54;100.00;57697.75;4960844;28;20180;-60
2022/02/02 01:46:01;;;;;;;30.77;5.97;;;;;;;-155.54;100.00;57697.75;4962359;28;20541;-60
2022/02/02 01:51:16;;;;;;;22.92;5.47;;;;;;;-155.54;100.00;57697.75;4961942;28;20117;-60
2022/02/02 01:56:10;;;;;;;30.00;6.50;;;;;;;-155.54;100.00;57697.75;4963651;28;20122;-60
2022/02/02 02:01:07;;;;;;;29.98;6.13;;;;;;;-155.54;100.00;57697.75;4961969;28;20118;-60
2022/02/02 02:03:33;;;;;;;30.48;6.28;;;;;;;-155.54;100.00;57697.75;4968444;28;20107;-60
2022/02/02 02:05:58;;;;;;;26.73;6.00;;;;;;;-155.54;100.00;57697.75;4966789;28;20095;-60
2022/02/02 02:08:24;;;;;;;19.92;5.05;;;;;;;-155.54;100.00;57697.75;4961795;28;20130;-60
2022/02/02 02:10:50;;;;;;;24.75;5.50;;;;;;;-155.54;100.00;57697.75;4961573;28;20111;-60
2022/02/02 02:15:43;;;;;;;36.33;6.47;;;;;;;-155.54;100.00;57697.75;4958987;28;20614;-60
2022/02/02 02:18:08;;;;;;;31.92;6.57;;;;;;;-155.54;100.00;57697.75;4962249;28;20087;-60
2022/02/02 02:20:34;;;;;;;30.13;6.22;;;;;;;-155.54;100.00;57697.75;4972848;28;20207;-60
2022/02/02 02:22:59;;;;;;;35.78;7.22;;;;;;;-155.54;100.00;57697.75;4961753;28;20103;-60
2022/02/02 02:25:26;;;;;;;36.95;7.32;;;;;;;-155.54;100.00;57697.75;4960885;28;20090;-60
2022/02/02 02:27:52;;;;;;;31.75;7.18;;;;;;;-155.54;100.00;57697.75;4950227;28;20122;-60
2022/02/02 02:30:38;;;;;;;32.22;6.35;;;;;;;-155.54;100.00;57697.75;4961133;28;20597;-60
2022/02/02 02:38:44;;;;;;;26.10;6.03;;;;;;;-155.54;100.00;57697.75;4959258;28;20094;-60
2022/02/02 02:58:06;;;;;;;35.00;6.30;;;;;;;-155.54;100.00;57697.75;4950606;28;20598;-60
2022/02/02 03:14:41;;;;;;;19.48;3.63;;;;;;;-155.54;100.00;57697.75;4949407;28;20150;-60
2022/02/02 03:30:17;;;;;;;26.77;6.38;;;;;;;-155.54;100.00;57697.75;4959828;28;20512;-60
2022/02/02 03:52:02;;;;;;;30.75;6.63;;;;;;;-155.54;100.00;57697.75;4960800;28;20210;-59
2022/02/02 03:59:44;;;;;;;42.03;8.10;;;;;;;-155.54;100.00;57697.75;4964715;28;20114;-59
2022/02/02 04:04:46;;;;;;;43.35;9.05;;;;;;;-155.54;100.00;57697.75;4964954;28;20356;-59
2022/02/02 04:07:24;;;;;;;40.30;8.00;;;;;;;-155.54;100.00;57697.75;4964954;28;20118;-59
2022/02/02 04:09:50;;;;;;;34.03;7.05;;;;;;;-155.54;100.00;57697.75;4964414;28;20722;-59
2022/02/02 04:12:32;;;;;;;22.98;4.97;;;;;;;-155.54;100.00;57697.75;4963695;28;20103;-59
2022/02/02 05:16:18;;;;;;;28.75;6.32;;;;;;;-155.54;100.00;57697.75;4963450;28;20103;-61
2022/02/02 05:21:37;;;;;;;25.05;4.72;;;;;;;-155.54;100.00;57697.75;4963611;28;20106;-60
2022/02/02 05:53:35;;;;;;;32.33;7.80;;;;;;;-155.54;100.00;57697.75;4960275;28;20135;-60
2022/02/02 05:56:02;;;;;;;22.35;4.88;;;;;;;-155.54;100.00;57697.75;4964530;28;20391;-60
2022/02/02 05:58:28;;;;;;;31.75;7.30;;;;;;;-155.54;100.00;57697.75;4971466;28;20083;-60
2022/02/02 06:00:55;;;;;;;33.53;7.10;;;;;;;-155.54;100.00;57697.75;4961909;28;20109;-60
2022/02/02 06:03:25;;;;;;;38.25;8.27;;;;;;;-155.54;100.00;57697.75;4961807;28;20648;-60
2022/02/02 06:05:51;;;;;;;34.70;6.72;;;;;;;-155.54;100.00;57697.75;4970292;28;20424;-60
2022/02/02 06:08:16;;;;;;;28.17;6.47;;;;;;;-155.54;100.00;57697.75;4957356;28;20103;-60
2022/02/02 06:10:42;;;;;;;27.35;7.07;;;;;;;-155.54;100.00;57697.75;4960699;28;20131;-60
2022/02/02 06:13:09;;;;;;;25.98;5.60;;;;;;;-155.54;100.00;57697.75;4969675;28;20524;-60
2022/02/02 06:15:34;;;;;;;28.27;6.70;;;;;;;-155.54;100.00;57697.75;4967318;28;20126;-60
2022/02/02 06:18:01;;;;;;;34.78;7.72;;;;;;;-155.54;100.00;57697.75;4955610;28;20531;-60
2022/02/02 06:20:26;;;;;;;33.25;7.53;;;;;;;-155.54;100.00;57697.75;4976960;28;20095;-60
2022/02/02 06:23:07;;;;;;;25.13;5.70;;;;;;;-155.54;100.00;57697.75;4957017;28;20111;-60
2022/02/02 06:25:33;;;;;;;37.80;7.60;;;;;;;-155.54;100.00;57697.75;4962157;28;20078;-60
2022/02/02 06:28:04;;;;;;;25.60;5.18;;;;;;;-155.54;100.00;57697.75;4961508;28;20569;-60
2022/02/02 06:30:30;;;;;;;37.80;8.48;;;;;;;-155.54;100.00;57697.75;4961305;28;20737;-60
2022/02/02 06:33:07;;;;;;;41.53;6.95;;;;;;;-155.54;100.00;57697.75;4962717;28;20434;-60
2022/02/02 06:35:33;;;;;;;28.40;5.85;;;;;;;-155.54;100.00;57697.75;4962343;28;20145;-60
2022/02/02 06:37:59;;;;;;;28.35;6.45;;;;;;;-155.54;100.00;57697.75;4962192;28;20804;-60
2022/02/02 06:40:24;;;;;;;21.60;4.68;;;;;;;-155.54;100.00;57697.75;4965792;28;20574;-60
2022/02/02 06:42:52;;;;;;;31.00;6.03;;;;;;;-155.54;100.00;57697.75;4967488;28;20110;-60
2022/02/02 06:45:18;;;;;;;23.13;5.78;;;;;;;-155.54;100.00;57697.75;4953873;28;20731;-60
2022/02/02 06:47:46;;;;;;;34.13;7.35;;;;;;;-155.54;100.00;57697.75;4965736;28;20202;-60
2022/02/02 06:50:17;;;;;;;26.33;4.97;;;;;;;-155.54;100.00;57697.75;4964344;28;20106;-60
2022/02/02 06:53:19;;;;;;;26.33;6.10;;;;;;;-155.54;100.00;57697.75;4973156;28;20161;-60
2022/02/02 06:56:16;;;;;;;31.40;6.88;;;;;;;-155.54;100.00;57697.75;4955844;28;20119;-60
2022/02/02 06:59:02;;;;;;;27.60;7.03;;;;;;;-155.54;100.00;57697.75;4947940;28;20298;-60
2022/02/02 07:04:29;;;;;;;21.63;5.55;;;;;;;-155.54;100.00;57697.75;4969098;28;20449;-60
2022/02/02 07:07:11;;;;;;;22.88;5.45;;;;;;;-155.54;100.00;57697.75;4962677;28;20115;-60
2022/02/02 07:18:09;;;;;;;34.38;6.93;;;;;;;-155.54;100.00;57697.75;4968284;28;20088;-60
2022/02/02 07:31:23;;;;;;;20.42;4.80;;;;;;;-155.54;100.00;57697.75;4964564;28;20114;-60
2022/02/02 07:33:50;;;;;;;18.40;3.83;;;;;;;-155.54;100.00;57697.75;4964342;28;20083;-60
2022/02/02 07:36:26;;;;;;;18.52;4.00;;;;;;;-155.54;100.00;57697.75;4965202;28;20102;-60
2022/02/02 07:39:10;;;;;;;8.65;2.67;;;;;;;-155.54;100.00;57697.75;4964139;28;20111;-60
2022/02/02 07:41:38;;;;;;;8.93;2.60;;;;;;;-155.54;100.00;57697.75;4971447;28;20499;-60
2022/02/02 07:44:12;;;;;;;15.35;2.50;;;;;;;-155.54;100.00;57697.75;4970728;28;20094;-60
2022/02/02 07:46:37;;;;;;;14.40;3.00;;;;;;;-155.54;100.00;57697.75;4972517;28;20107;-60
2022/02/02 07:49:05;;;;;;;15.88;4.03;;;;;;;-155.54;100.00;57697.75;4963256;28;20559;-60
2022/02/02 07:51:33;;;;;;;15.38;3.28;;;;;;;-155.54;100.00;57697.75;4969213;28;20617;-60
2022/02/02 07:54:01;;;;;;;18.42;4.30;;;;;;;-155.54;100.00;57697.75;4927685;28;20126;-60
2022/02/02 07:56:33;;;;;;;16.38;4.70;;;;;;;-155.54;100.00;57697.75;4949310;28;20181;-60
2022/02/02 07:59:15;;;;;;;21.35;4.50;;;;;;;-155.54;100.00;57697.75;4959719;28;20242;-60
2022/02/02 08:01:42;;;;;;;24.10;4.50;;;;;;;-155.54;100.00;57697.75;4964973;28;20255;-60
2022/02/02 08:04:08;;;;;;;15.20;3.92;;;;;;;-155.54;100.00;57697.75;4963809;28;20205;-60
2022/02/02 08:06:35;;;;;;;17.95;4.50;;;;;;;-155.54;100.00;57697.75;4964685;28;20106;-60
2022/02/02 08:09:00;;;;;;;14.20;3.33;;;;;;;-155.54;100.00;57697.75;4962580;28;20091;-60
2022/02/02 08:11:30;;;;;;;16.70;3.80;;;;;;;-155.54;100.00;57697.75;4963013;28;20110;-60
2022/02/02 08:13:59;;;;;;;23.20;4.47;;;;;;;-155.54;100.00;57697.75;4966617;28;20090;-60
2022/02/02 08:16:25;;;;;;;13.68;3.45;;;;;;;-155.54;100.00;57697.75;4973541;28;20141;-60
2022/02/02 08:18:52;;;;;;;13.60;3.72;;;;;;;-155.54;100.00;57697.75;4955364;28;20224;-60
2022/02/02 08:21:18;;;;;;;13.80;3.08;;;;;;;-155.54;100.00;57697.75;4959321;28;20076;-60
2022/02/02 08:23:44;;;;;;;13.45;3.25;;;;;;;-155.54;100.00;57697.75;4961555;28;20109;-60
2022/02/02 08:26:14;;;;;;;19.00;3.67;;;;;;;-155.54;100.00;57697.75;4966155;28;20109;-60
2022/02/02 08:28:39;;;;;;;12.30;2.97;;;;;;;-155.54;100.00;57697.75;4945781;28;20107;-60
2022/02/02 08:31:05;;;;;;;13.38;2.85;;;;;;;-155.54;100.00;57697.75;4959801;28;20115;-60
2022/02/02 08:33:34;;;;;;;12.10;2.85;;;;;;;-155.54;100.00;57697.75;4971072;28;20169;-60
2022/02/02 08:36:02;;;;;;;;;;;;;;;-155.54;100.00;57697.75;4956404;28;20162;-60
2022/02/02 08:43:39;;;;;;;17.55;4.05;;;;;;;-155.54;100.00;57697.75;4961684;28;20107;-60
2022/02/02 08:46:09;;;;;;;16.35;4.40;;;;;;;-155.54;100.00;57697.75;4953343;28;20118;-60
2022/02/02 08:48:36;;;;;;;13.30;3.83;;;;;;;-155.54;100.00;57697.75;4958347;28;20185;-60
2022/02/02 08:51:12;;;;;;;15.00;4.75;;;;;;;-155.54;100.00;57697.75;4947939;28;20552;-59
2022/02/02 08:58:45;;;;;;;11.60;3.33;;;;;;;-155.54;100.00;57697.75;4951547;28;20440;-60
2022/02/02 09:01:16;;;;;;;12.05;3.83;;;;;;;-155.54;100.00;57697.75;4959442;28;20099;-60
2022/02/02 09:06:26;;;;;;;19.55;5.05;;;;;;;-155.54;100.00;57697.75;4958777;28;20302;-60
2022/02/02 09:09:01;;;;;;;20.40;6.22;;;;;;;-155.54;100.00;57697.75;4955886;28;20080;-60
2022/02/02 09:35:09;;;;;;;13.43;4.13;;;;;;;-155.54;100.00;57697.75;4954253;28;20115;-60
2022/02/02 09:37:34;;;;;;;22.38;6.78;;;;;;;-155.54;100.00;57697.75;4958533;28;20161;-60
2022/02/02 09:40:18;;;;;;;18.77;5.07;;;;;;;-155.54;100.00;57697.75;4952023;28;20096;-60
2022/02/02 09:42:43;;;;;;;25.92;7.32;;;;;;;-155.54;100.00;57697.75;4949988;28;20127;-59
2022/02/02 09:45:13;;;;;;;24.40;6.00;;;;;;;-155.54;100.00;57697.75;4970773;28;20166;-60
2022/02/02 09:47:44;;;;;;;;;;;;;;;-155.54;100.00;57697.75;4960308;28;20406;-60
2022/02/02 09:50:24;;;;;;;25.83;6.68;;;;;;;-155.54;100.00;57697.75;4959203;28;20411;-60
2022/02/02 09:52:56;;;;;;;20.20;5.32;;;;;;;-155.54;100.00;57697.75;4960588;28;20114;-60
2022/02/02 09:55:53;;;;;;;28.15;5.97;;;;;;;-155.54;100.00;57697.75;4962279;28;20541;-61
2022/02/02 10:01:28;;;;;;;26.77;5.82;;;;;;;-155.54;100.00;57697.75;4950012;28;20098;-76
2022/02/02 10:04:30;;;;;;;17.05;6.25;;;;;;;-155.54;100.00;57697.75;4962649;28;20107;-73
2022/02/02 10:09:55;;;;;;;20.50;5.00;;;;;;;-155.54;100.00;57697.75;4961639;28;20091;-77
2022/02/02 10:15:14;;;;;;;23.45;5.28;;;;;;;-155.54;100.00;57697.75;4969197;28;20288;-76
2022/02/02 10:17:39;;;;;;;16.50;4.82;;;;;;;-155.54;100.00;57697.75;4961620;28;20091;-75
2022/02/02 10:20:17;;;;;;;16.27;4.45;;;;;;;-155.54;100.00;57697.75;4962331;28;20122;-77
2022/02/02 10:22:45;;;;;;;24.00;6.00;;;;;;;-155.54;100.00;57697.75;4961028;28;20103;-77
2022/02/02 10:25:10;;;;;;;25.42;5.75;;;;;;;-155.54;100.00;57697.75;4942265;29;20104;-77
2022/02/02 10:27:35;;;;;;;17.00;4.30;;;;;;;-155.54;100.00;57697.75;4953257;28;20114;-77
2022/02/02 10:30:08;;;;;;;20.05;5.75;;;;;;;-155.54;100.00;57697.75;4965357;28;20087;-76
2022/02/02 10:32:39;;;;;;;15.15;4.55;;;;;;;-155.54;100.00;57697.75;4955378;28;20477;-76
2022/02/02 10:35:05;;;;;;;26.85;5.95;;;;;;;-155.54;100.00;57697.75;4962026;28;20109;-75
2022/02/02 10:37:32;;;;;;;22.30;5.97;;;;;;;-155.54;100.00;57697.75;4955583;28;20594;-75
2022/02/02 10:39:58;;;;;;;24.35;6.35;;;;;;;-155.54;100.00;57697.75;4961912;28;20107;-78
2022/02/02 10:42:42;;;;;;;22.65;5.55;;;;;;;-155.54;100.00;57697.75;4960485;28;20083;-75
2022/02/02 10:45:18;;;;;;;21.33;5.20;;;;;;;-155.54;100.00;57697.75;4957506;28;20636;-77
2022/02/02 10:47:46;;;;;;;16.27;4.45;;;;;;;-155.54;100.00;57697.75;4962327;28;20421;-74
2022/02/02 10:50:26;;;;;;;23.65;5.15;;;;;;;-155.54;100.00;57697.75;4967348;28;20141;-75
2022/02/02 10:53:50;;;;;;;14.18;4.00;;;;;;;-155.54;100.00;57697.75;4959659;28;20118;-76
2022/02/02 10:56:34;;;;;;;25.48;5.00;;;;;;;-155.54;100.00;57697.75;4955501;28;20667;-75
2022/02/02 11:07:10;;;;;;;24.27;5.07;;;;;;;-155.54;100.00;57697.75;4961131;28;20157;-74
2022/02/02 11:09:36;;;;;;;20.55;5.90;;;;;;;-155.54;100.00;57697.75;4963068;28;20424;-74
2022/02/02 11:12:01;;;;;;;18.35;4.63;;;;;;;-155.54;100.00;57697.75;4965666;28;20161;-70
2022/02/02 11:14:41;;;;;;;20.95;5.47;;;;;;;-155.54;100.00;57697.75;4940467;28;20446;-74
2022/02/02 11:17:14;;;;;;;20.65;4.65;;;;;;;-155.54;100.00;57697.75;4960474;28;20068;-73
2022/02/02 11:19:40;;;;;;;16.05;4.30;;;;;;;-155.54;100.00;57697.75;4960083;28;20548;-75
2022/02/02 11:22:21;;;;;;;15.27;5.00;;;;;;;-155.54;100.00;57697.75;4943931;28;20087;-74
2022/02/02 11:24:46;;;;;;;19.48;4.15;;;;;;;-155.54;100.00;57697.75;4960492;28;20703;-74
2022/02/02 11:27:34;;;;;;;18.38;4.00;;;;;;;-155.54;100.00;57697.75;4961388;28;20118;-75
2022/02/02 11:30:10;;;;;;;19.65;4.40;;;;;;;-155.54;100.00;57697.75;4970401;28;20094;-75
2022/02/02 11:32:45;;;;;;;18.77;3.95;;;;;;;-155.54;100.00;57697.75;4962912;28;20107;-75
2022/02/02 11:35:46;;;;;;;16.23;4.18;;;;;;;-155.54;100.00;57697.75;4960095;28;20174;-74
2022/02/02 11:38:24;;;;;;;20.27;4.70;;;;;;;-155.54;100.00;57697.75;4961717;28;20074;-74
2022/02/02 11:47:37;;;;;;;15.70;3.95;;;;;;;-155.54;100.00;57697.75;4961290;28;20206;-76
2022/02/02 11:50:00;;;;;;;18.85;5.00;;;;;;;-155.54;100.00;57697.75;4949412;28;20110;-75
2022/02/02 11:52:49;;;;;;;13.35;3.70;;;;;;;-155.54;100.00;57697.75;4961250;28;20103;-74
2022/02/02 11:55:15;;;;;;;;;;;;;;;-155.54;100.00;57697.75;4970365;28;20125;-76
2022/02/02 11:58:12;;;;;;;13.65;4.00;;;;;;;-155.54;100.00;57697.75;4959300;28;20423;-76
2022/02/02 12:01:08;;;;;;;12.48;3.50;;;;;;;-155.54;100.00;57697.75;4947923;28;20666;-76
2022/02/02 12:09:41;;;;;;;13.35;3.70;;;;;;;-155.54;100.00;57697.75;4958394;28;20091;-74
2022/02/02 12:21:02;;;;;;;17.25;4.32;;;;;;;-155.54;100.00;57697.75;4953643;28;20118;-76
2022/02/02 12:47:51;;;;;;;8.93;2.88;;;;;;;-155.54;100.00;57697.75;4954527;28;20122;-75
2022/02/02 12:56:22;;;;;;;19.35;4.70;;;;;;;-155.54;100.00;57697.75;4964318;28;20161;-76
2022/02/02 12:58:50;;;;;;;13.88;3.58;;;;;;;-155.54;100.00;57697.75;4962592;28;20651;-76
2022/02/02 13:01:21;;;;;;;21.83;4.43;;;;;;;-155.54;100.00;57697.75;4964227;28;20095;-75
2022/02/02 13:03:46;;;;;;;13.57;3.95;;;;;;;-155.54;100.00;57697.75;4962656;28;20246;-76
2022/02/02 13:06:16;;;;;;;12.90;3.88;;;;;;;-155.54;100.00;57697.75;4973514;28;20574;-76
2022/02/02 13:08:43;;;;;;;17.00;3.95;;;;;;;-155.54;100.00;57697.75;4962627;28;20075;-76
2022/02/02 13:11:08;;;;;;;15.77;3.95;;;;;;;-155.54;100.00;57697.75;4963275;28;20613;-74
2022/02/02 13:13:34;;;;;;;14.93;4.25;;;;;;;-155.54;100.00;57697.75;4962481;28;20128;-76
2022/02/02 13:16:11;;;;;;;15.10;3.80;;;;;;;-155.54;100.00;57697.75;4962641;28;20122;-75
2022/02/02 13:18:41;;;;;;;14.48;3.65;;;;;;;-155.54;100.00;57697.75;4963601;28;20110;-75
2022/02/02 13:24:18;;;;;;;13.45;3.78;;;;;;;-155.54;100.00;57697.75;4962045;28;20178;-76
2022/02/02 13:29:17;;;;;;;18.25;4.20;;;;;;;-155.54;100.00;57697.75;4962218;28;20097;-75
2022/02/02 13:32:04;;;;;;;15.20;3.65;;;;;;;-155.54;100.00;57697.75;4963209;28;20115;-74
2022/02/02 13:34:53;;;;;;;13.10;3.33;;;;;;;-155.54;100.00;57697.75;4962890;28;20071;-74
2022/02/02 13:37:43;;;;;;;17.27;4.15;;;;;;;-155.54;100.00;57697.75;4954388;28;20091;-74
2022/02/02 14:01:33;;;;;;;17.25;4.20;;;;;;;-155.54;100.00;57697.75;4961636;28;20139;-75
2022/02/02 14:11:46;;;;;;;16.85;4.45;;;;;;;-155.54;100.00;57697.75;4962342;28;20695;-76
2022/02/02 14:33:19;;;;;;;22.02;4.70;;;;;;;-155.54;100.00;57697.75;4961468;28;20146;-75
2022/02/02 14:35:46;;;;;;;14.77;4.15;;;;;;;-155.54;100.00;57697.75;4962226;28;20122;-74
2022/02/02 14:38:13;;;;;;;14.60;3.88;;;;;;;-155.54;100.00;57697.75;4962733;28;20079;-74
2022/02/02 14:40:57;;;;;;;13.55;3.47;;;;;;;-155.54;100.00;57697.75;4962435;28;20125;-74
2022/02/02 14:43:36;;;;;;;13.98;3.47;;;;;;;-155.54;100.00;57697.75;4962211;28;20193;-75
2022/02/02 14:46:04;;;;;;;24.67;5.53;;;;;;;-155.54;100.00;57697.75;4962472;28;20515;-74
2022/02/02 14:48:34;;;;;;;13.07;3.03;;;;;;;-155.54;100.00;57697.75;4960574;28;20111;-74
2022/02/02 15:32:18;;;;;;;16.63;3.67;;;;;;;-155.54;100.00;57697.75;4961914;28;20103;-75
2022/02/02 15:34:47;;;;;;;16.25;3.33;;;;;;;-155.54;100.00;57697.75;4961508;28;20103;-74
2022/02/02 15:37:31;;;;;;;16.92;3.63;;;;;;;-155.54;100.00;57697.75;4962609;28;20580;-74
2022/02/02 15:40:07;;;;;;;18.83;5.25;;;;;;;-155.54;100.00;57697.75;4949935;28;20119;-74
2022/02/02 15:42:43;;;;;;;10.52;3.28;;;;;;;-155.54;100.00;57697.75;4964011;28;20587;-74
2022/02/02 15:58:41;;;;;;;13.18;3.15;;;;;;;-155.54;100.00;57697.75;4965579;28;20137;-72
2022/02/02 16:03:52;;;;;;;17.45;4.15;;;;;;;-155.54;100.00;57697.75;4964940;28;20479;-73
2022/02/02 16:06:21;;;;;;;13.07;3.28;;;;;;;-155.54;100.00;57697.75;4976439;28;20489;-74
2022/02/02 16:08:49;;;;;;;10.63;3.05;;;;;;;-155.54;100.00;57697.75;4948093;28;20095;-75
2022/02/02 16:11:19;;;;;;;12.07;3.65;;;;;;;-155.54;100.00;57697.75;4962635;28;20118;-74
2022/02/02 16:13:51;;;;;;;11.57;3.28;;;;;;;-155.54;100.00;57697.75;4977380;28;20559;-75
2022/02/02 16:19:17;;;;;;;17.60;4.18;;;;;;;-155.54;100.00;57697.75;4963423;28;20569;-72
2022/02/02 16:38:16;;;;;;;7.20;2.83;;;;;;;-155.54;100.00;57697.75;4964290;28;20295;-73
2022/02/02 16:40:43;;;;;;;15.13;3.13;;;;;;;-155.54;100.00;57697.75;4964577;28;20075;-73
2022/02/02 16:43:15;;;;;;;18.98;3.92;;;;;;;-155.54;100.00;57697.75;4951510;28;20354;-74
2022/02/02 16:45:46;;;;;;;17.33;4.32;;;;;;;-155.54;100.00;57697.75;4947625;28;20153;-72
2022/02/02 16:48:12;;;;;;;17.00;4.03;;;;;;;-155.54;100.00;57697.75;4964028;28;20555;-72
2022/02/02 16:50:40;;;;;;;19.10;4.53;;;;;;;-155.54;100.00;57697.75;4963013;28;20114;-72
2022/02/02 16:53:12;;;;;;;16.73;4.30;;;;;;;-155.54;100.00;57697.75;4968198;28;20516;-72
2022/02/02 17:32:59;;;;;;;17.05;4.43;;;;;;;-155.54;100.00;57697.75;4963641;28;20083;-75
2022/02/02 17:38:03;;;;;;;17.65;4.45;;;;;;;-155.54;100.00;57697.75;4963548;28;20485;-74
2022/02/02 17:43:25;;;;;;;12.48;3.70;;;;;;;-155.54;100.00;57697.75;4963313;28;20103;-74
2022/02/02 18:15:37;;;;;;;8.63;3.30;;;;;;;-155.54;100.00;57697.75;4962246;28;20238;-75
2022/02/02 18:19:55;;;;;;;12.02;4.20;;;;;;;-155.54;100.00;57697.75;4967604;28;20165;-75
2022/02/02 18:22:25;;;;;;;14.77;3.97;;;;;;;-155.54;100.00;57697.75;4972168;28;20153;-76
2022/02/02 18:25:07;;;;;;;9.25;3.60;;;;;;;-155.54;100.00;57697.75;4962294;28;20071;-74
2022/02/02 18:27:48;;;;;;;9.45;3.55;;;;;;;-155.54;100.00;57697.75;4960831;28;20515;-75
2022/02/02 18:30:31;;;;;;;12.65;4.05;;;;;;;-155.54;100.00;57697.75;4961538;28;20103;-76
2022/02/02 18:35:31;;;;;;;10.80;3.23;;;;;;;-155.54;100.00;57697.75;4961565;28;20102;-74
2022/02/02 18:48:49;;;;;;;8.32;3.20;;;;;;;-155.54;100.00;57697.75;4974411;28;20091;-76
2022/02/02 18:51:48;;;;;;;10.50;3.70;;;;;;;-155.54;100.00;57697.75;4961100;28;20482;-75
2022/02/02 18:54:16;;;;;;;8.23;2.97;;;;;;;-155.54;100.00;57697.75;4949509;28;20127;-75
2022/02/02 19:02:21;;;;;;;11.70;3.90;;;;;;;-155.54;100.00;57697.75;4961680;28;20113;-76
2022/02/02 19:40:20;;;;;;;17.52;8.10;;;;;;;-155.54;100.00;57697.75;4967815;28;20114;-67
2022/02/02 19:57:22;;;;;;;22.60;11.13;;;;;;;-155.54;100.00;57697.75;4964832;28;20114;-74
2022/02/02 20:09:56;;;;;;;17.77;7.47;;;;;;;-155.54;100.00;57697.75;4964328;28;20190;-76
2022/02/02 20:12:35;;;;;;;16.33;7.45;;;;;;;-155.54;100.00;57697.75;4963885;28;20520;-76
2022/02/02 20:15:01;;;;;;;17.33;7.35;;;;;;;-155.54;100.00;57697.75;4962839;28;20169;-75
2022/02/02 20:17:27;;;;;;;20.20;7.00;;;;;;;-155.54;100.00;57697.75;4962692;28;20071;-76
2022/02/02 20:19:59;;;;;;;15.95;7.75;;;;;;;-155.54;100.00;57697.75;4964261;28;20107;-77
2022/02/02 20:22:27;;;;;;;13.25;7.20;;;;;;;-155.54;100.00;57697.75;4963447;28;20079;-75
2022/02/02 20:24:59;;;;;;;15.15;7.53;;;;;;;-155.54;100.00;57697.75;4962713;28;20435;-76
2022/02/02 20:27:25;;;;;;;14.82;6.70;;;;;;;-155.54;100.00;57697.75;4943500;28;20105;-63
2022/02/02 20:29:50;;;;;;;15.50;7.20;;;;;;;-155.54;100.00;57697.75;4963362;28;20095;-64
2022/02/02 20:32:16;;;;;;;14.43;6.47;;;;;;;-155.54;100.00;57697.75;4951898;28;20472;-62
2022/02/02 20:34:41;;;;;;;17.58;6.60;;;;;;;-155.54;100.00;57697.75;4961133;28;20336;-61
2022/02/02 20:37:08;;;;;;;13.35;6.05;;;;;;;-155.54;100.00;57697.75;4975167;28;20086;-63
2022/02/02 20:39:43;;;;;;;13.38;6.70;;;;;;;-155.54;100.00;57697.75;4961189;28;20113;-63
2022/02/02 20:42:10;;;;;;;13.23;6.75;;;;;;;-155.54;100.00;57697.75;4952759;28;20082;-64
2022/02/02 20:45:06;;;;;;;18.70;7.63;;;;;;;-155.54;100.00;57697.75;4971728;28;20111;-63
2022/02/02 21:04:21;;;;;;;26.35;10.52;;;;;;;-155.54;100.00;57697.75;4950744;28;20119;-63
2022/02/02 21:09:49;;;;;;;21.73;8.57;;;;;;;-155.54;100.00;57697.75;4963329;28;20446;-64
2022/02/02 21:14:51;;;;;;;17.73;8.25;;;;;;;-155.54;100.00;57697.75;4950282;28;20579;-63
2022/02/02 21:17:23;;;;;;;17.50;8.13;;;;;;;-155.54;100.00;57697.75;4959670;28;20086;-62
2022/02/02 21:22:17;;;;;;;18.55;8.82;;;;;;;-155.54;100.00;57697.75;4963875;28;20595;-62
2022/02/02 21:29:37;;;;;;;17.17;8.40;;;;;;;-155.54;100.00;57697.75;4963625;28;20084;-63
2022/02/02 21:32:03;;;;;;;18.55;8.63;;;;;;;-155.54;100.00;57697.75;4963058;28;20169;-60
2022/02/02 21:34:28;;;;;;;17.95;8.50;;;;;;;-155.54;100.00;57697.75;4963178;28;20087;-63
2022/02/02 21:36:55;;;;;;;14.38;8.00;;;;;;;-155.54;100.00;57697.75;4962922;28;20133;-64
2022/02/02 21:39:23;;;;;;;16.48;8.00;;;;;;;-155.54;100.00;57697.75;4963684;28;20114;-63
2022/02/02 21:41:51;;;;;;;16.23;7.47;;;;;;;-155.54;100.00;57697.75;4962828;28;20106;-64
2022/02/02 21:44:17;;;;;;;17.35;7.38;;;;;;;-155.54;100.00;57697.75;4963690;28;20660;-62
2022/02/02 21:46:42;;;;;;;15.75;7.13;;;;;;;-155.54;100.00;57697.75;4962344;28;20107;-63
2022/02/02 21:49:18;;;;;;;18.95;7.95;;;;;;;-155.54;100.00;57697.75;4962636;28;20556;-63
2022/02/02 21:51:59;;;;;;;19.17;7.18;;;;;;;-155.54;100.00;57697.75;4961918;28;20114;-63
2022/02/02 21:54:25;;;;;;;17.77;7.47;;;;;;;-155.54;100.00;57697.75;4961739;28;20123;-63
2022/02/02 21:56:50;;;;;;;16.27;6.35;;;;;;;-155.54;100.00;57697.75;4962671;28;20090;-64
2022/02/02 21:59:15;;;;;;;21.85;6.88;;;;;;;-155.54;100.00;57697.75;4961755;28;20115;-62
2022/02/02 22:01:41;;;;;;;19.02;6.70;;;;;;;-155.54;100.00;57697.75;4962041;28;20091;-64
2022/02/02 22:04:06;;;;;;;19.83;7.20;;;;;;;-155.54;100.00;57697.75;4962378;28;20119;-62
2022/02/02 22:06:32;;;;;;;19.00;6.47;;;;;;;-155.54;100.00;57697.75;4961815;28;20099;-64